Weather observations for the past three days for
Naples, Naples Municipal Airport
Metric (Imperial)
Date Time (edt) Wind (kph) Vis. (km) Weather Sky Cond. Temperature (ºC) Relative Humidity Wind Chill (°C) Heat Index (°C) Pressure Precipitation (cm)
Air Dwpt 6 hour altimeter (cm) sea level (mb) 1 hr 3 hr 6 hr
Max. Min.
02 13:53 SW 26 16.09 Fair CLR 30 24.4 30.6 22.8 72% 36 75.92 1011.9
02 12:53 SW 28 16.09 Fair CLR 29.4 24.4 75% 35 75.92 1012.1
02 11:53 SW 33 G 46 16.09 Fair and Breezy CLR 29.4 24.4 75% 35 75.92 1012.1
02 10:53 SW 31 G 43 16.09 Fair CLR 28.9 24.4 77% 34 75.92 1012.1
02 09:53 SW 28 16.09 Fair CLR 28.3 24.4 79% 33 75.9 1011.7
02 08:53 S 20 16.09 Fair CLR 27.8 24.4 82% 32 75.87 1011.3
02 07:53 SE 6 14.48 Fair CLR 22.8 21.7 24.4 21.7 94% 75.87 1011.2
02 06:53 E 6 14.48 Mostly Cloudy BKN065 22.2 21.1 94% 75.84 1010.9
02 05:53 E 7 14.48 Fair CLR 21.7 21.1 96% 75.84 1011.1
02 04:53 NE 6 16.09 Mostly Cloudy BKN070 21.7 21.1 96% 75.87 1011.5
02 03:53 NE 7 14.48 Partly Cloudy SCT050 22.8 21.7 94% 75.87 1011.3
02 02:53 SE 9 16.09 A Few Clouds FEW060 23.9 21.7 88% 24 75.87 1011.4
02 01:53 Calm 16.09 Fair CLR 23.9 21.7 25.6 23.3 88% 24 75.87 1011.5
02 00:53 Calm 16.09 Fair CLR 24.4 22.2 88% 25 75.87 1011.4
01 23:53 SW 9 16.09 Fair CLR 24.4 21.7 85% 25 75.92 1011.9
01 22:53 SW 9 16.09 Fair CLR 25 21.1 79% 26 75.92 1012.2
01 21:53 SW 11 16.09 Fair CLR 25 21.1 79% 26 75.9 1011.7
01 20:53 SW 9 16.09 Fair CLR 25 20.6 77% 26 75.87 1011.3
01 19:53 SW 13 16.09 Fair CLR 25.6 20.6 28.9 25.6 74% 27 75.82 1010.8
01 18:53 SW 11 16.09 Fair CLR 27.2 20 65% 29 75.79 1010.5
01 17:53 SW 11 16.09 Fair CLR 27.2 18.9 61% 28 75.79 1010.3
01 16:53 W 13 16.09 Fair CLR 28.3 20 61% 30 75.84 1011.0
01 15:53 SW 15 16.09 Fair CLR 28.3 20 61% 30 75.9 1011.6
01 14:53 W 20 16.09 Fair CLR 28.3 20.6 63% 30 75.95 1012.5
01 13:53 SW 20 16.09 Fair CLR 28.3 20.6 28.9 22.8 63% 30 75.97 1012.9
01 12:53 W 17 16.09 Fair CLR 27.8 21.7 69% 30 76.02 1013.3
01 11:53 W 13 16.09 Fair CLR 27.8 21.7 69% 30 76.02 1013.4
01 10:53 SW 7 16.09 Mostly Cloudy BKN022 BKN030 27.2 21.1 69% 29 76.02 1013.5
01 09:53 Vrbl 9 16.09 Mostly Cloudy FEW017 BKN026 BKN031 26.1 21.1 74% 28 76.02 1013.5
01 08:53 SE 7 16.09 Fair CLR 24.4 22.2 88% 25 76 1013.1
01 07:53 Calm 16.09 Fair CLR 22.8 21.7 23.9 20.6 94% 76 1013.0
01 06:53 Calm 14.48 A Few Clouds FEW017 21.1 20.6 97% 75.97 1012.5
01 05:53 Calm 14.48 Fair CLR 21.7 21.1 96% 75.9 1011.8
01 04:53 Calm 16.09 Fair CLR 23.3 21.1 88% 75.9 1011.6
01 03:53 NW 11 14.48 Fair CLR 23.3 21.7 91% 75.9 1011.6
01 02:53 W 11 14.48 Fair CLR 23.3 21.7 91% 75.92 1012.0
01 01:53 W 9 14.48 Fair CLR 23.9 21.7 25.6 23.9 88% 24 75.92 1012.1
01 00:53 W 9 14.48 Fair CLR 23.9 21.7 88% 24 75.95 1012.5
30 23:53 W 7 16.09 Fair CLR 23.9 21.1 84% 24 76 1012.9
30 22:53 W 13 16.09 Fair CLR 24.4 20.6 79% 25 75.97 1012.8
30 21:53 W 9 14.48 Fair CLR 24.4 21.1 82% 25 75.95 1012.2
30 20:53 NW 7 16.09 Fair CLR 24.4 21.1 82% 25 75.92 1012.0
30 19:53 W 9 16.09 Fair CLR 25.6 21.1 29.4 25.6 76% 27 75.9 1011.5
30 18:53 W 15 16.09 Fair CLR 26.7 20 67% 28 75.87 1011.5
30 17:53 W 19 16.09 Fair CLR 27.2 21.1 69% 29 75.87 1011.4
30 16:53 W 19 16.09 Fair CLR 27.8 20.6 65% 30 75.87 1011.4
30 15:53 W 20 16.09 Fair CLR 27.8 21.1 67% 30 75.92 1011.9
30 14:53 SW 19 16.09 Fair CLR 28.3 19.4 59% 30 75.95 1012.4
30 13:53 W 17 16.09 Fair CLR 28.9 18.9 29.4 23.3 55% 30 75.95 1012.4
30 12:53 SW 17 16.09 Fair CLR 28.9 17.2 49% 29 75.97 1012.6
30 11:53 SW 13 16.09 Fair CLR 28.9 18.3 53% 30 76.02 1013.2
30 10:53 SW 9 16.09 Fair CLR 27.8 17.2 53% 28 76.02 1013.5
30 09:53 Vrbl 6 16.09 Fair CLR 26.7 21.7 74% 29 76.02 1013.5
30 08:53 S 7 16.09 Fair CLR 24.4 22.8 91% 24 76.02 1013.2
30 07:53 Calm 16.09 Fair CLR 23.3 22.2 23.9 21.7 94% 76 1013.1
30 06:53 Calm 12.87 Fair CLR 21.7 21.7 100% 75.97 1012.8
30 05:53 Calm 12.87 Fair CLR 22.2 21.7 97% 75.95 1012.3
30 04:53 Calm 14.48 Fair CLR 22.2 21.7 97% 75.95 1012.5
30 03:53 Calm 12.87 Fair CLR 22.8 22.2 96% 75.95 1012.3
30 02:53 Calm 14.48 A Few Clouds FEW014 23.3 22.2 94% 76 1013.0
30 01:53 Calm 14.48 Fair CLR 23.9 22.8 25.6 22.8 94% 23 76.05 1013.7
30 00:53 Calm 14.48 Fair CLR 23.3 22.2 94% 76.07 1014.2
29 23:53 Calm 14.48 Fair CLR 24.4 22.2 88% 25 76.1 1014.4
29 22:53 NW 7 14.48 Fair CLR 24.4 22.8 91% 24 76.1 1014.3
29 21:53 W 11 14.48 Fair CLR 24.4 22.2 88% 25 76.05 1013.7
29 20:53 NW 15 16.09 Fair CLR 25 22.2 85% 26 75.97 1012.7
29 19:53 W 17 16.09 Fair CLR 25.6 21.1 29.4 25.6 76% 27 75.95 1012.3
29 18:53 W 11 16.09 Fair CLR 26.7 21.1 71% 28 75.95 1012.3
29 17:53 W 20 16.09 Fair CLR 27.8 21.7 69% 30 75.97 1012.7
29 16:53 W 19 16.09 Fair CLR 28.3 22.2 70% 31 76 1013.0
29 15:53 W 24 16.09 Fair CLR 28.9 21.1 63% 31 76.02 1013.5
29 14:53 W 22 16.09 Fair CLR 28.9 18.9 55% 30 76.12 1014.6
Date Time (edt) Wind (kph) Vis. (km) Weather Sky Cond. Air Dwpt Max. Min. Relative Humidity Wind Chill (°C) Heat Index (°C) altimeter (cm) sea level (mb) 1 hr 3 hr 6 hr
6 hour
Temperature (ºC) Pressure Precipitation (cm)